KIDA/IDA METAR and TAF weather

Enter ICAO airport designator
Station Type Date Time Source
KIDA METAR 2022/10/01 08:53 UTC NOAA

KIDA 010853Z AUTO 36008KT 10SM FEW070 OVC095 09/06 A3010 RMK AO2 SLP170 T00940061 53001


Station Type Date Time Source
KIDA Decoded METAR 2022/10/01 08:53 UTC NOAA

IDAHO FALLS REGIONAL AIRPORT, ID, United States (KIDA) 43-31N 112-04W 1453M
Oct 01, 2022 - 04:53 AM EDT / 2022.10.01 0853 UTC
Wind: from the N (360 degrees) at 9 MPH (8 KT):0
Visibility: 10 mile(s):0
Sky conditions: overcast
Temperature: 48.9 F (9.4 C)
Dew Point: 43.0 F (6.1 C)
Relative Humidity: 79%
Pressure (altimeter): 30.1 in. Hg (1019 hPa)
Pressure tendency: 0.00 inches (0.1 hPa) higher than three hours ago
ob: KIDA 010853Z AUTO 36008KT 10SM FEW070 OVC095 09/06 A3010 RMK AO2 SLP170 T00940061 53001
cycle: 9

Station Type Date Time Source
KIDA TAF 2022/10/01 06:22 UTC NOAA

TAF KIDA 010520Z 0106/0206 VRB06KT 6SM -SHRA SCT020 BKN040 OVC060
FM010800 VRB06KT P6SM VCSH SCT030 BKN060
FM011600 VRB06KT P6SM VCSH SCT025 BKN045
FM012100 32010KT P6SM VCTS SCT030CB BKN050
FM020200 VRB06KT P6SM VCSH SCT040 BKN070

Example: see airport list